Time;durP1;ratioP1;P1;durP2;ratioP2;P2;SDS_P1;SDS_P2;PMS_P1;PMS_P2;Temp;Humidity;BMP_temperature;BMP_pressure;BME280_temperature;BME280_humidity;BME280_pressure;Samples;Min_cycle;Max_cycle;Signal;HPM_P1;HPM_P2
2022/05/15 00:01:21;;;;;;;16.00;7.75;;;;;;;12.75;82.98;101997.91;5103464;28;20093;-66
2022/05/15 00:03:48;;;;;;;14.23;7.78;;;;;;;12.70;83.34;101989.91;5098442;28;20026;-66
2022/05/15 00:06:13;;;;;;;16.05;8.02;;;;;;;12.66;83.42;101990.63;5100027;28;20028;-66
2022/05/15 00:08:39;;;;;;;15.10;8.00;;;;;;;12.63;83.33;101987.00;5100810;28;20016;-66
2022/05/15 00:11:06;;;;;;;13.20;8.02;;;;;;;12.56;83.54;101985.84;5102172;28;20108;-66
2022/05/15 00:13:32;;;;;;;22.65;8.35;;;;;;;12.50;83.78;101986.50;5097087;28;20016;-66
2022/05/15 00:15:58;;;;;;;16.92;7.63;;;;;;;12.46;84.08;101990.66;5099404;28;20076;-66
2022/05/15 00:18:24;;;;;;;19.55;8.63;;;;;;;12.44;83.90;101989.72;5104247;28;20027;-66
2022/05/15 00:20:50;;;;;;;19.77;7.95;;;;;;;12.42;83.32;101987.84;5098403;28;20035;-66
2022/05/15 00:23:19;;;;;;;21.05;8.35;;;;;;;12.40;83.38;101980.00;5100527;28;20357;-67
2022/05/15 00:25:45;;;;;;;17.00;7.95;;;;;;;12.39;83.51;101983.44;5100507;28;20019;-66
2022/05/15 00:28:11;;;;;;;20.58;8.35;;;;;;;12.35;84.07;101979.81;5096984;28;20030;-66
2022/05/15 00:30:36;;;;;;;16.75;7.78;;;;;;;12.35;84.39;101982.41;5103950;28;20024;-66
2022/05/15 00:33:04;;;;;;;17.52;7.15;;;;;;;12.33;83.98;101977.97;5095021;28;20023;-66
2022/05/15 00:35:30;;;;;;;18.40;8.02;;;;;;;12.28;84.22;101969.97;5098476;28;20044;-66
2022/05/15 00:37:56;;;;;;;18.35;7.72;;;;;;;12.31;84.12;101974.41;5101237;28;20571;-66
2022/05/15 00:40:23;;;;;;;18.58;7.97;;;;;;;12.35;83.68;101979.81;5100282;28;20103;-66
2022/05/15 00:42:49;;;;;;;17.42;7.65;;;;;;;12.38;83.38;101976.44;5100529;28;20024;-66
2022/05/15 00:45:17;;;;;;;17.83;7.70;;;;;;;12.39;83.66;101974.75;5100292;28;20039;-66
2022/05/15 00:47:42;;;;;;;21.80;7.18;;;;;;;12.38;82.23;101966.03;5099380;28;20031;-66
2022/05/15 00:50:13;;;;;;;20.33;7.20;;;;;;;12.41;82.12;101967.91;5104836;28;20015;-66
2022/05/15 00:52:43;;;;;;;19.63;7.18;;;;;;;12.36;81.08;101971.19;5101587;28;20351;-66
2022/05/15 00:55:22;;;;;;;20.00;6.80;;;;;;;12.42;80.87;101965.34;5095175;28;20020;-66
2022/05/15 00:57:56;;;;;;;12.82;6.43;;;;;;;12.44;81.81;101965.41;5102038;28;20027;-66
2022/05/15 01:00:26;;;;;;;17.42;6.28;;;;;;;12.49;80.53;101963.91;5099526;28;20043;-66
2022/05/15 01:02:58;;;;;;;20.23;7.40;;;;;;;12.53;79.67;101962.31;5096601;28;20067;-66
2022/05/15 01:05:23;;;;;;;20.48;7.35;;;;;;;12.53;79.37;101955.41;5098537;28;20035;-66
2022/05/15 01:07:49;;;;;;;15.75;6.47;;;;;;;12.56;79.80;101959.84;5103708;28;20042;-66
2022/05/15 01:10:15;;;;;;;21.08;6.40;;;;;;;12.58;79.88;101963.41;5100872;28;20039;-66
2022/05/15 01:12:42;;;;;;;19.42;6.47;;;;;;;12.56;80.11;101973.72;5100669;28;20027;-66
2022/05/15 01:15:14;;;;;;;20.48;7.28;;;;;;;12.56;79.63;101967.63;5099538;28;20035;-66
2022/05/15 01:17:39;;;;;;;19.63;6.20;;;;;;;12.49;80.06;101967.41;5096511;28;20024;-66
2022/05/15 01:20:09;;;;;;;18.50;7.03;;;;;;;12.48;79.57;101963.00;5096403;28;20160;-66
2022/05/15 01:22:35;;;;;;;21.95;7.68;;;;;;;12.45;79.87;101967.19;5098310;28;20053;-66
2022/05/15 01:25:03;;;;;;;21.35;6.75;;;;;;;12.42;80.43;101967.06;5099614;28;20036;-66
2022/05/15 01:27:30;;;;;;;21.55;8.00;;;;;;;12.39;80.58;101965.25;5094448;28;20030;-63
2022/05/15 01:29:57;;;;;;;19.15;7.50;;;;;;;12.33;80.49;101962.38;5092482;28;20027;-64
2022/05/15 01:32:22;;;;;;;20.48;7.57;;;;;;;12.28;80.84;101963.88;5087448;28;20114;-66
2022/05/15 01:34:48;;;;;;;21.67;7.07;;;;;;;12.22;80.93;101967.09;5101285;28;20134;-66
2022/05/15 01:37:13;;;;;;;21.08;6.93;;;;;;;12.18;82.15;101975.59;5102540;27;20028;-66
2022/05/15 01:39:38;;;;;;;23.05;7.32;;;;;;;12.10;81.88;101965.75;5102067;28;20024;-66
2022/05/15 01:42:05;;;;;;;17.92;7.10;;;;;;;12.05;82.17;101975.03;5103570;28;20032;-66
2022/05/15 01:44:31;;;;;;;20.98;7.13;;;;;;;12.00;82.14;101973.91;5104143;28;20418;-65
2022/05/15 01:46:57;;;;;;;23.67;7.63;;;;;;;11.95;82.29;101965.94;5101084;28;20020;-66
2022/05/15 01:49:22;;;;;;;20.63;6.90;;;;;;;11.95;82.76;101965.94;5103466;28;20065;-66
2022/05/15 01:51:47;;;;;;;18.95;7.68;;;;;;;11.95;82.63;101968.53;5103007;28;20035;-66
2022/05/15 01:54:13;;;;;;;18.33;6.68;;;;;;;11.93;82.22;101967.56;5104975;28;20418;-66
2022/05/15 01:56:40;;;;;;;16.67;6.25;;;;;;;11.91;82.87;101968.34;5102426;28;20081;-66
2022/05/15 01:59:07;;;;;;;21.52;6.72;;;;;;;11.84;83.55;101959.34;5101640;28;20027;-66
2022/05/15 02:01:33;;;;;;;23.30;7.78;;;;;;;11.82;82.87;101963.63;5104586;28;20032;-66
2022/05/15 02:03:59;;;;;;;20.70;7.00;;;;;;;11.76;83.11;101965.09;5104134;28;20053;-66
2022/05/15 02:06:24;;;;;;;20.63;7.32;;;;;;;11.73;83.92;101958.88;5103156;28;20035;-66
2022/05/15 02:08:50;;;;;;;22.05;7.05;;;;;;;11.66;84.49;101957.72;5102452;28;20031;-66
2022/05/15 02:11:16;;;;;;;16.75;6.53;;;;;;;11.62;84.60;101961.00;5102695;28;20054;-66
2022/05/15 02:13:41;;;;;;;18.67;7.40;;;;;;;11.60;85.13;101957.44;5104080;28;20016;-66
2022/05/15 02:16:07;;;;;;;18.08;7.10;;;;;;;11.58;84.79;101959.97;5104910;28;20070;-66
2022/05/15 02:18:32;;;;;;;24.02;7.75;;;;;;;11.54;85.04;101958.06;5100866;28;20035;-66
2022/05/15 02:20:58;;;;;;;22.67;7.82;;;;;;;11.51;85.01;101957.91;5101760;28;20038;-66
2022/05/15 02:23:23;;;;;;;21.38;7.15;;;;;;;11.46;85.62;101949.91;5100560;28;20418;-66
2022/05/15 02:25:49;;;;;;;20.10;6.50;;;;;;;11.41;85.93;101951.41;5102711;28;20090;-66
2022/05/15 02:28:14;;;;;;;19.63;6.95;;;;;;;11.39;85.94;101955.63;5102613;28;20043;-66
2022/05/15 02:30:39;;;;;;;19.35;7.72;;;;;;;11.35;86.77;101956.31;5102629;28;20020;-66
2022/05/15 02:33:05;;;;;;;19.10;7.20;;;;;;;11.33;86.17;101960.53;5101933;27;20475;-66
2022/05/15 02:35:31;;;;;;;20.77;6.95;;;;;;;11.29;86.30;101965.59;5103024;28;20044;-66
2022/05/15 02:37:57;;;;;;;19.55;7.70;;;;;;;11.28;87.22;101966.41;5103450;28;20035;-66
2022/05/15 02:40:23;;;;;;;22.70;8.88;;;;;;;11.25;86.05;101960.16;5100535;28;20043;-66
2022/05/15 02:42:49;;;;;;;17.00;6.75;;;;;;;11.22;86.54;101960.94;5102749;28;20032;-65
2022/05/15 02:45:14;;;;;;;21.00;6.57;;;;;;;11.21;86.82;101959.13;5100712;28;20022;-66
2022/05/15 02:47:40;;;;;;;18.42;7.15;;;;;;;11.16;87.67;101947.66;5103737;28;20031;-66
2022/05/15 02:52:50;;;;;;;18.65;6.90;;;;;;;11.16;87.31;101950.25;5100375;28;20046;-66
2022/05/15 02:55:16;;;;;;;17.33;7.43;;;;;;;11.12;87.41;101946.63;5103219;28;20047;-66
2022/05/15 02:57:42;;;;;;;21.42;7.30;;;;;;;11.09;87.66;101948.19;5102581;28;20356;-66
2022/05/15 03:00:12;;;;;;;20.38;7.22;;;;;;;11.05;87.82;101942.84;5099701;28;20028;-66
2022/05/15 03:02:39;;;;;;;21.90;7.00;;;;;;;11.04;88.37;101945.38;5101391;28;20356;-66
2022/05/15 03:05:06;;;;;;;21.10;7.40;;;;;;;11.01;88.28;101938.31;5098698;28;20070;-66
2022/05/15 03:07:31;;;;;;;21.90;7.20;;;;;;;10.96;88.23;101937.22;5105399;28;20020;-66
2022/05/15 03:09:56;;;;;;;19.80;7.03;;;;;;;10.93;88.25;101937.06;5099878;28;20050;-66
2022/05/15 03:12:22;;;;;;;16.52;7.05;;;;;;;10.93;88.69;101939.66;5099572;28;20024;-66
2022/05/15 03:14:47;;;;;;;19.25;6.78;;;;;;;10.90;88.92;101937.81;5101154;28;20055;-65
2022/05/15 03:17:13;;;;;;;19.05;7.13;;;;;;;10.91;88.83;101944.78;5101681;28;20032;-66
2022/05/15 03:19:38;;;;;;;20.35;7.35;;;;;;;10.90;88.61;101930.03;5100784;28;20054;-66
2022/05/15 03:22:03;;;;;;;22.95;7.55;;;;;;;10.90;88.37;101931.75;5100601;28;20552;-66
2022/05/15 03:24:29;;;;;;;21.40;7.47;;;;;;;10.89;88.64;101932.56;5099032;28;20047;-66
2022/05/15 03:26:54;;;;;;;22.83;7.60;;;;;;;10.87;88.75;101928.97;5105527;28;20027;-66
2022/05/15 03:29:20;;;;;;;21.50;7.57;;;;;;;10.84;89.04;101936.63;5105011;28;20030;-66
2022/05/15 03:31:46;;;;;;;22.08;7.35;;;;;;;10.80;89.32;101935.59;5101261;28;20012;-66
2022/05/15 03:34:13;;;;;;;18.83;7.05;;;;;;;10.76;90.43;101933.66;5100377;28;20060;-66
2022/05/15 03:36:41;;;;;;;18.23;7.15;;;;;;;10.72;90.50;101936.94;5097179;28;20051;-66
2022/05/15 03:39:09;;;;;;;17.20;6.90;;;;;;;10.69;90.20;101933.38;5099898;28;20059;-66
2022/05/15 03:41:36;;;;;;;18.80;6.85;;;;;;;10.67;90.70;101931.50;5101052;28;20089;-66
2022/05/15 03:44:02;;;;;;;19.00;6.72;;;;;;;10.63;90.83;101927.88;5100020;28;20060;-66
2022/05/15 03:46:27;;;;;;;18.33;7.13;;;;;;;10.59;90.72;101925.97;5099964;28;20108;-66
2022/05/15 03:48:53;;;;;;;24.13;7.95;;;;;;;10.57;90.86;101925.88;5101298;28;20027;-65
2022/05/15 03:51:18;;;;;;;20.05;7.18;;;;;;;10.55;91.73;101924.03;5105847;28;20177;-66
2022/05/15 03:53:43;;;;;;;19.85;7.75;;;;;;;10.55;91.77;101927.50;5103325;27;20516;-66
2022/05/15 03:56:09;;;;;;;17.88;6.88;;;;;;;10.53;91.88;101926.53;5105189;28;20057;-66
2022/05/15 03:58:36;;;;;;;20.63;7.47;;;;;;;10.54;91.40;101933.47;5099620;28;20065;-66
2022/05/15 04:01:04;;;;;;;20.10;7.18;;;;;;;10.53;91.62;101931.72;5096553;28;20345;-66
2022/05/15 04:03:30;;;;;;;21.08;7.40;;;;;;;10.50;91.63;101926.41;5099320;28;20030;-66
2022/05/15 04:05:55;;;;;;;22.73;7.80;;;;;;;10.51;92.34;101925.56;5101018;28;20024;-66
2022/05/15 04:08:21;;;;;;;18.05;7.38;;;;;;;10.50;91.81;101923.81;5093042;28;20065;-66
2022/05/15 04:10:46;;;;;;;18.38;6.65;;;;;;;10.49;91.82;101929.78;5097696;28;20179;-66
2022/05/15 04:13:12;;;;;;;18.73;7.00;;;;;;;10.51;92.23;101937.63;5102194;28;20442;-66
2022/05/15 04:15:37;;;;;;;27.27;8.32;;;;;;;10.51;91.87;101927.25;5099619;28;20020;-66
2022/05/15 04:18:05;;;;;;;27.75;8.52;;;;;;;10.51;92.30;101932.44;5097469;28;20028;-66
2022/05/15 04:20:31;;;;;;;22.98;8.52;;;;;;;10.48;92.84;101943.56;5099955;28;20028;-66
2022/05/15 04:22:57;;;;;;;18.67;7.57;;;;;;;10.48;92.69;101948.75;5105698;28;20027;-66
2022/05/15 04:25:22;;;;;;;21.50;7.43;;;;;;;10.47;93.52;101956.41;5091949;28;20549;-66
2022/05/15 04:27:48;;;;;;;21.00;7.68;;;;;;;10.45;93.42;101948.56;5101308;28;20015;-66
2022/05/15 04:30:18;;;;;;;24.17;7.80;;;;;;;10.48;93.28;101946.16;5101838;28;20110;-66
2022/05/15 04:32:44;;;;;;;22.00;7.32;;;;;;;10.50;93.60;101952.31;5101414;28;20104;-65
2022/05/15 04:35:10;;;;;;;20.20;7.03;;;;;;;10.52;94.15;101944.59;5106386;28;20927;-66
2022/05/15 04:37:36;;;;;;;21.92;8.05;;;;;;;10.53;93.74;101941.19;5100853;28;20696;-66
2022/05/15 04:40:01;;;;;;;17.88;7.45;;;;;;;10.54;93.42;101937.81;5099622;28;20035;-66
2022/05/15 04:42:27;;;;;;;16.73;7.18;;;;;;;10.55;93.81;101937.88;5101153;28;20024;-66
2022/05/15 04:44:52;;;;;;;18.67;7.90;;;;;;;10.60;93.75;101935.50;5104682;28;20027;-66
2022/05/15 04:47:18;;;;;;;20.85;7.88;;;;;;;10.63;93.25;101934.78;5100387;28;20110;-66
2022/05/15 04:49:43;;;;;;;25.80;8.52;;;;;;;10.72;92.24;101939.53;5100372;28;20023;-66
2022/05/15 04:52:10;;;;;;;22.90;8.38;;;;;;;10.76;92.93;101938.84;5100080;28;20012;-66
2022/05/15 04:54:36;;;;;;;18.58;7.32;;;;;;;10.83;92.48;101930.53;5103800;28;20015;-66
2022/05/15 04:57:01;;;;;;;20.75;8.07;;;;;;;10.87;92.86;101935.06;5094654;28;20024;-66
2022/05/15 04:59:26;;;;;;;24.67;8.05;;;;;;;10.93;91.37;101931.91;5100850;28;20471;-66
2022/05/15 05:01:54;;;;;;;22.77;8.20;;;;;;;11.01;92.04;101935.72;5104077;28;20193;-65
2022/05/15 05:04:19;;;;;;;22.13;8.13;;;;;;;11.03;91.93;101943.59;5097715;28;20024;-65
2022/05/15 05:06:45;;;;;;;22.55;8.40;;;;;;;11.08;91.76;101936.91;5096067;28;20490;-66
2022/05/15 05:09:11;;;;;;;22.52;8.23;;;;;;;11.15;91.65;101944.16;5099849;28;20019;-66
2022/05/15 05:11:37;;;;;;;19.48;8.55;;;;;;;11.21;91.17;101950.44;5106063;28;20020;-64
2022/05/15 05:14:03;;;;;;;18.85;7.90;;;;;;;11.29;90.97;101947.44;5100832;28;20012;-64
2022/05/15 05:16:30;;;;;;;23.52;8.38;;;;;;;11.36;90.45;101942.50;5101214;28;20016;-64
2022/05/15 05:18:56;;;;;;;21.98;7.80;;;;;;;11.41;90.15;101951.41;5104506;28;20501;-64
2022/05/15 05:21:22;;;;;;;21.25;8.20;;;;;;;11.50;91.22;101946.63;5099127;28;20047;-64
2022/05/15 05:23:47;;;;;;;18.95;8.18;;;;;;;11.60;91.03;101947.06;5106225;28;20020;-63
2022/05/15 05:26:12;;;;;;;24.80;8.40;;;;;;;11.71;89.59;101952.75;5099946;28;20035;-65
2022/05/15 05:28:38;;;;;;;20.75;8.65;;;;;;;11.78;89.69;101941.81;5101938;28;20039;-64
2022/05/15 05:31:03;;;;;;;25.00;9.05;;;;;;;11.83;89.80;101944.59;5100294;27;20012;-64
2022/05/15 05:33:28;;;;;;;26.92;9.10;;;;;;;11.86;89.34;101944.72;5102863;28;20035;-64
2022/05/15 05:35:54;;;;;;;23.35;8.85;;;;;;;11.91;89.02;101943.22;5107858;28;20043;-64
2022/05/15 05:38:19;;;;;;;20.20;9.05;;;;;;;12.06;89.01;101947.31;5105706;28;20057;-64
2022/05/15 05:40:44;;;;;;;24.23;9.18;;;;;;;12.22;88.46;101938.50;5099722;28;20043;-64
2022/05/15 05:43:10;;;;;;;23.88;8.73;;;;;;;12.34;88.31;101932.97;5105107;28;20054;-64
2022/05/15 05:45:35;;;;;;;21.15;8.80;;;;;;;12.45;87.10;101939.47;5098823;28;20020;-65
2022/05/15 05:48:01;;;;;;;24.33;8.73;;;;;;;12.55;86.28;101943.38;5091550;28;20597;-63
2022/05/15 05:50:27;;;;;;;19.52;8.52;;;;;;;12.65;86.85;101939.41;5100798;28;20028;-64
2022/05/15 05:52:54;;;;;;;20.02;9.07;;;;;;;12.82;86.26;101937.53;5099785;28;20471;-64
2022/05/15 05:55:20;;;;;;;25.02;9.48;;;;;;;13.02;86.04;101936.53;5101458;28;20028;-64
2022/05/15 05:57:46;;;;;;;20.10;9.38;;;;;;;13.22;85.37;101942.53;5104059;27;20030;-64
2022/05/15 06:00:19;;;;;;;23.90;8.98;;;;;;;13.38;83.63;101938.78;5103273;28;20083;-64
2022/05/15 06:02:44;;;;;;;22.40;8.85;;;;;;;13.52;83.59;101939.34;5100514;28;20031;-65
2022/05/15 06:05:09;;;;;;;20.75;9.10;;;;;;;13.74;82.75;101939.25;5101507;28;20039;-64
2022/05/15 06:07:35;;;;;;;25.63;9.70;;;;;;;13.81;81.77;101938.63;5097503;28;20035;-64
2022/05/15 06:10:01;;;;;;;20.35;8.50;;;;;;;13.84;80.98;101938.75;5102137;28;20073;-65
2022/05/15 06:12:26;;;;;;;20.33;9.80;;;;;;;14.02;81.93;101940.22;5101357;28;20028;-65
2022/05/15 06:14:53;;;;;;;18.77;9.35;;;;;;;14.13;80.97;101941.50;5100365;28;20046;-65
2022/05/15 06:17:27;;;;;;;21.00;9.57;;;;;;;14.26;79.09;101934.09;5102282;28;20043;-65
2022/05/15 06:19:53;;;;;;;19.92;9.32;;;;;;;14.39;79.29;101928.44;5101521;28;20020;-65
2022/05/15 06:22:18;;;;;;;20.55;9.43;;;;;;;14.56;78.33;101935.97;5102163;28;20031;-65
2022/05/15 06:24:44;;;;;;;19.92;9.60;;;;;;;14.57;76.74;101935.09;5102782;28;20023;-65
2022/05/15 06:27:10;;;;;;;20.98;10.35;;;;;;;14.67;77.55;101932.81;5103411;28;20038;-65
2022/05/15 06:29:40;;;;;;;16.45;9.32;;;;;;;14.76;76.86;101930.50;5103363;28;20498;-65
2022/05/15 06:32:06;;;;;;;17.95;8.88;;;;;;;15.08;77.11;101940.22;5091774;28;20028;-65
2022/05/15 06:34:31;;;;;;;15.15;8.20;;;;;;;15.34;77.23;101938.38;5098116;28;20579;-65
2022/05/15 06:36:57;;;;;;;18.75;9.55;;;;;;;15.53;75.24;101938.94;5104392;28;20435;-64
2022/05/15 06:39:22;;;;;;;15.82;8.98;;;;;;;15.68;73.86;101929.75;5105299;28;20383;-64
2022/05/15 06:41:50;;;;;;;16.55;9.55;;;;;;;15.82;74.18;101930.16;5103306;28;20030;-65
2022/05/15 06:44:17;;;;;;;19.77;8.77;;;;;;;16.04;73.91;101926.44;5102679;28;20027;-65
2022/05/15 06:46:42;;;;;;;18.02;10.13;;;;;;;16.10;71.80;101920.44;5106758;28;20016;-65
2022/05/15 06:49:08;;;;;;;19.42;9.25;;;;;;;16.29;71.91;101921.84;5099861;28;20532;-65
2022/05/15 06:51:33;;;;;;;20.20;10.07;;;;;;;16.48;71.41;101927.50;5089552;28;20563;-65
2022/05/15 06:53:58;;;;;;;17.00;10.05;;;;;;;16.69;71.75;101931.50;5094843;28;20031;-65
2022/05/15 06:59:07;;;;;;;17.15;9.90;;;;;;;17.03;71.24;101927.06;5089390;28;20455;-65
2022/05/15 07:01:33;;;;;;;12.52;8.40;;;;;;;17.28;70.99;101932.88;5089546;28;20044;-65
2022/05/15 07:03:58;;;;;;;17.48;9.25;;;;;;;17.44;70.26;101930.56;5096137;28;20456;-65
2022/05/15 07:06:23;;;;;;;17.10;9.48;;;;;;;17.54;67.66;101933.38;5097455;28;20506;-65
2022/05/15 07:08:49;;;;;;;20.40;9.52;;;;;;;17.58;68.08;101924.69;5095213;28;20383;-65
2022/05/15 07:11:15;;;;;;;17.05;10.25;;;;;;;17.70;67.63;101938.06;5090876;28;20032;-65
2022/05/15 07:13:40;;;;;;;16.60;9.95;;;;;;;17.83;67.16;101933.94;5092617;28;20036;-65
2022/05/15 07:16:06;;;;;;;18.85;9.82;;;;;;;17.82;66.04;101933.91;5091910;28;20030;-65
2022/05/15 07:18:32;;;;;;;14.10;9.32;;;;;;;17.86;65.75;101936.59;5089524;28;20088;-65
2022/05/15 07:20:57;;;;;;;15.05;10.10;;;;;;;17.92;65.81;101938.47;5099779;28;20111;-65
2022/05/15 07:23:23;;;;;;;15.75;9.27;;;;;;;18.05;64.91;101933.44;5098900;28;20020;-64
2022/05/15 07:25:49;;;;;;;17.23;9.60;;;;;;;18.24;64.78;101943.44;5095903;28;20535;-65
2022/05/15 07:28:15;;;;;;;20.10;9.18;;;;;;;18.35;63.08;101938.38;5104610;28;20047;-64
2022/05/15 07:30:41;;;;;;;16.65;9.85;;;;;;;18.59;64.25;101944.03;5102754;28;20448;-65
2022/05/15 07:33:07;;;;;;;14.10;8.75;;;;;;;18.85;63.43;101946.19;5102775;28;20011;-65
2022/05/15 07:35:33;;;;;;;16.73;10.23;;;;;;;18.99;61.00;101942.84;5097878;28;20050;-64
2022/05/15 07:37:58;;;;;;;13.68;9.68;;;;;;;18.89;58.77;101941.84;5097056;28;20032;-65
2022/05/15 07:40:23;;;;;;;13.30;9.23;;;;;;;19.25;60.64;101934.50;5096153;28;20031;-65
2022/05/15 07:42:49;;;;;;;13.10;8.20;;;;;;;19.55;62.01;101933.13;5101626;28;20032;-65
2022/05/15 07:45:15;;;;;;;14.07;8.52;;;;;;;19.76;60.03;101926.31;5096677;28;20035;-65
2022/05/15 07:47:42;;;;;;;14.82;9.27;;;;;;;20.05;60.26;101931.03;5099129;28;20066;-65
2022/05/15 07:50:08;;;;;;;16.52;9.18;;;;;;;20.29;58.00;101926.88;5094274;28;20028;-65
2022/05/15 07:52:34;;;;;;;20.05;9.85;;;;;;;20.48;56.53;101927.91;5097414;28;20433;-65
2022/05/15 07:55:00;;;;;;;12.70;8.93;;;;;;;20.66;57.00;101925.38;5098011;28;20020;-65
2022/05/15 07:57:25;;;;;;;14.18;8.32;;;;;;;20.84;56.42;101924.63;5100247;28;20024;-65
2022/05/15 07:59:50;;;;;;;16.20;9.25;;;;;;;21.02;55.24;101929.16;5099613;28;20197;-65
2022/05/15 08:02:17;;;;;;;14.40;9.50;;;;;;;21.20;54.07;101927.47;5096874;28;20112;-65
2022/05/15 08:10:11;;;;;;;12.63;9.00;;;;;;;21.82;53.17;101927.72;5107373;28;20078;-65
2022/05/15 08:12:37;;;;;;;15.07;9.38;;;;;;;21.94;52.47;101920.72;5107512;28;20444;-65
2022/05/15 08:15:04;;;;;;;17.38;9.70;;;;;;;22.04;52.50;101917.19;5107686;28;20467;-66
2022/05/15 08:17:29;;;;;;;15.80;8.88;;;;;;;22.23;51.97;101917.22;5100265;28;20471;-65
2022/05/15 08:25:23;;;;;;;16.60;8.27;;;;;;;22.74;50.41;101905.72;5092948;28;20073;-66
2022/05/15 08:27:48;;;;;;;13.68;8.05;;;;;;;22.82;50.41;101895.16;5093212;28;20118;-65
2022/05/15 08:30:15;;;;;;;13.55;8.23;;;;;;;23.03;50.61;101893.31;5084425;28;20077;-66
2022/05/15 08:32:41;;;;;;;14.55;9.10;;;;;;;23.11;47.95;101895.94;5085107;28;20020;-65
2022/05/15 08:35:06;;;;;;;16.92;9.20;;;;;;;23.21;47.96;101892.34;5087399;28;20047;-66
2022/05/15 08:37:31;;;;;;;15.48;9.15;;;;;;;23.27;47.88;101891.47;5087393;28;20148;-66
2022/05/15 08:39:57;;;;;;;12.18;7.55;;;;;;;23.37;47.09;101887.00;5087379;28;20016;-66
2022/05/15 08:42:35;;;;;;;13.00;7.07;;;;;;;23.45;45.39;101879.94;5087033;28;20066;-66
2022/05/15 08:45:01;;;;;;;11.75;6.75;;;;;;;23.56;44.67;101873.72;5085321;28;20050;-66
2022/05/15 08:47:42;;;;;;;16.75;7.43;;;;;;;23.66;43.76;101867.47;5086235;28;20054;-66
2022/05/15 08:50:11;;;;;;;11.52;7.15;;;;;;;23.68;43.62;101870.97;5086100;28;20024;-66
2022/05/15 08:52:53;;;;;;;16.48;8.05;;;;;;;23.72;42.94;101864.78;5086288;28;20024;-66
2022/05/15 08:55:24;;;;;;;12.75;7.38;;;;;;;23.82;44.36;101862.94;5085321;28;20024;-66
2022/05/15 08:57:54;;;;;;;13.40;6.45;;;;;;;23.98;44.47;101868.97;5086162;28;20032;-65
2022/05/15 09:00:33;;;;;;;14.48;7.68;;;;;;;23.87;41.36;101861.13;5105987;28;20372;-66
2022/05/15 09:03:13;;;;;;;13.60;6.22;;;;;;;24.02;41.03;101869.84;5105402;28;20482;-66
2022/05/15 09:05:48;;;;;;;10.77;6.00;;;;;;;24.04;41.45;101873.34;5106471;28;20143;-66
2022/05/15 09:08:41;;;;;;;10.55;6.43;;;;;;;24.13;39.60;101867.09;5106564;28;20042;-66
2022/05/15 09:11:09;;;;;;;9.45;6.05;;;;;;;24.16;39.73;101863.56;5107094;28;20031;-66
2022/05/15 09:13:41;;;;;;;12.02;5.68;;;;;;;24.23;41.22;101871.44;5106782;28;20026;-66
2022/05/15 09:16:16;;;;;;;11.75;6.40;;;;;;;24.32;39.58;101866.97;5106996;28;20096;-66
2022/05/15 09:18:42;;;;;;;13.95;6.28;;;;;;;24.37;40.71;101856.31;5106311;28;20056;-66
2022/05/15 09:21:13;;;;;;;10.32;5.85;;;;;;;24.48;40.73;101870.34;5107021;28;20106;-66
2022/05/15 09:23:42;;;;;;;13.82;6.20;;;;;;;24.65;39.82;101870.16;5106426;27;20031;-66
2022/05/15 09:26:22;;;;;;;11.50;5.45;;;;;;;24.68;39.25;101870.09;5105828;28;20024;-66
2022/05/15 09:28:58;;;;;;;12.48;5.85;;;;;;;24.70;39.28;101868.31;5106295;28;20027;-66
2022/05/15 09:31:42;;;;;;;13.00;5.93;;;;;;;24.74;38.87;101868.28;5106815;28;20055;-66
2022/05/15 09:34:19;;;;;;;10.57;4.97;;;;;;;24.85;38.13;101863.75;5106724;28;20396;-67
2022/05/15 09:36:46;;;;;;;10.27;5.13;;;;;;;24.95;38.24;101859.25;5107172;28;20115;-66
2022/05/15 09:39:35;;;;;;;9.10;4.70;;;;;;;25.14;37.54;101854.59;5106135;28;20020;-66
2022/05/15 09:45:19;;;;;;;9.73;4.20;;;;;;;25.40;35.93;101848.00;5106416;28;20044;-66
2022/05/15 09:48:10;;;;;;;10.07;4.22;;;;;;;25.52;36.58;101846.97;5106807;28;20146;-66
2022/05/15 09:50:40;;;;;;;13.18;4.28;;;;;;;25.65;35.89;101841.50;5106501;28;20015;-66
2022/05/15 09:53:18;;;;;;;9.63;3.95;;;;;;;25.67;35.48;101839.72;5105915;28;20028;-67
2022/05/15 09:55:57;;;;;;;8.65;4.32;;;;;;;25.70;34.27;101836.13;5106611;28;20312;-66
2022/05/15 09:58:22;;;;;;;14.23;4.68;;;;;;;25.40;33.98;101832.09;5110127;27;20423;-66
2022/05/15 10:00:48;;;;;;;9.43;4.70;;;;;;;25.33;34.34;101838.41;5109976;28;20023;-66
2022/05/15 10:03:16;;;;;;;11.10;4.13;;;;;;;25.37;34.56;101829.50;5110064;28;20694;-66
2022/05/15 10:05:41;;;;;;;10.85;4.40;;;;;;;25.39;33.44;101825.06;5109538;28;20498;-66
2022/05/15 10:08:22;;;;;;;9.30;3.78;;;;;;;25.41;34.07;101833.88;5110096;28;20115;-66
2022/05/15 10:10:56;;;;;;;7.85;4.20;;;;;;;25.41;32.98;101835.63;5109696;28;20039;-66
2022/05/15 10:13:43;;;;;;;9.05;4.43;;;;;;;25.44;34.20;101830.28;5109924;28;20073;-66
2022/05/15 10:16:31;;;;;;;9.57;4.00;;;;;;;25.57;35.04;101833.63;5109688;28;20472;-66
2022/05/15 10:19:02;;;;;;;10.23;4.30;;;;;;;25.72;33.84;101821.94;5109411;28;20031;-66
2022/05/15 10:21:50;;;;;;;11.55;3.92;;;;;;;25.72;33.95;101831.66;5109206;28;20034;-66
2022/05/15 10:24:23;;;;;;;10.15;4.10;;;;;;;25.77;33.17;101824.50;5109519;28;20054;-66
2022/05/15 10:27:25;;;;;;;9.45;3.97;;;;;;;25.78;32.19;101820.94;5109727;28;20556;-66
2022/05/15 10:29:56;;;;;;;9.05;4.28;;;;;;;25.68;32.29;101819.34;5086491;28;20063;-66
2022/05/15 10:32:36;;;;;;;8.65;3.83;;;;;;;25.55;32.10;101824.81;5109785;28;20011;-66
2022/05/15 10:35:02;;;;;;;7.57;3.75;;;;;;;25.60;33.14;101819.44;5089673;28;20043;-66
2022/05/15 10:37:52;;;;;;;8.52;3.85;;;;;;;25.69;32.93;101816.66;5089858;28;20085;-66
2022/05/15 10:40:20;;;;;;;5.28;3.40;;;;;;;25.84;32.21;101817.31;5089886;28;20039;-66
2022/05/15 10:43:07;;;;;;;11.13;4.30;;;;;;;25.85;32.62;101806.66;5089377;28;20028;-66
2022/05/15 10:45:48;;;;;;;8.40;4.03;;;;;;;25.88;31.81;101806.63;5089521;28;20031;-67
2022/05/15 10:48:25;;;;;;;9.25;4.20;;;;;;;25.71;32.71;101803.34;5089522;28;20028;-66
2022/05/15 10:51:15;;;;;;;9.02;4.53;;;;;;;25.86;32.93;101796.94;5089549;28;20024;-66
2022/05/15 10:57:21;;;;;;;8.80;3.33;;;;;;;25.68;32.06;101798.13;5108865;28;20035;-66
2022/05/15 11:00:08;;;;;;;7.47;3.53;;;;;;;25.65;31.19;101799.91;5109165;28;20114;-66
2022/05/15 11:02:54;;;;;;;9.68;3.55;;;;;;;25.65;30.74;101794.59;5108249;28;20027;-66
2022/05/15 11:05:26;;;;;;;8.02;3.22;;;;;;;25.72;31.33;101798.06;5108442;28;20028;-66
2022/05/15 11:08:14;;;;;;;8.95;3.30;;;;;;;25.79;32.43;101804.13;5108410;28;20023;-66
2022/05/15 11:10:52;;;;;;;9.60;3.10;;;;;;;25.85;31.76;101793.38;5108422;28;20479;-66
2022/05/15 11:13:30;;;;;;;9.07;3.60;;;;;;;25.92;32.67;101790.63;5108159;28;20027;-66
2022/05/15 11:16:07;;;;;;;8.93;3.35;;;;;;;25.95;30.48;101785.25;5089369;28;20085;-66
2022/05/15 11:18:47;;;;;;;7.55;2.80;;;;;;;26.05;31.04;101786.84;5089351;28;20028;-66
2022/05/15 11:21:29;;;;;;;10.10;3.22;;;;;;;26.05;30.87;101786.84;5089342;28;20468;-66
2022/05/15 11:24:01;;;;;;;6.72;3.00;;;;;;;26.19;31.94;101783.06;5088710;28;20069;-66
2022/05/15 11:26:34;;;;;;;8.55;2.60;;;;;;;26.16;30.83;101767.22;5088805;28;20492;-66
2022/05/15 11:29:05;;;;;;;7.53;2.60;;;;;;;26.26;31.52;101776.75;5108124;28;20054;-67
2022/05/15 11:31:37;;;;;;;6.65;2.70;;;;;;;26.32;31.15;101765.13;5108252;28;20387;-66
2022/05/15 11:34:05;;;;;;;6.95;3.10;;;;;;;26.29;30.78;101763.38;5088384;28;20030;-65
2022/05/15 11:36:41;;;;;;;6.07;2.80;;;;;;;26.32;31.40;101752.69;5088300;28;20476;-65
2022/05/15 11:39:15;;;;;;;8.43;3.38;;;;;;;26.35;30.57;101750.03;5089286;28;20487;-66
2022/05/15 11:41:43;;;;;;;7.65;3.28;;;;;;;26.36;29.64;101749.13;5088826;28;20028;-65
2022/05/15 11:44:14;;;;;;;8.07;3.67;;;;;;;26.33;30.57;101741.19;5089044;28;20043;-66
2022/05/15 11:46:45;;;;;;;7.22;3.30;;;;;;;26.28;29.92;101740.41;5088201;28;20024;-65
2022/05/15 11:49:38;;;;;;;6.60;2.90;;;;;;;26.37;30.81;101739.38;5088599;28;20487;-66